Strona główna
METAR-TAF:

METAR-TAF

Lotnisko :

Port lotniczy Poznań-Ławica

Poznań, Polska

Szerokość geograficzna: 52-25N, Długość geograficzna: 016-50E, wysokość: 86 m

Aktualna obserwacja pogody

Raport powstał 16 minut temu, godzina 23:00 UTC
Wiatr 6 kt od wschodnio-południowy wschód
Temperatura 17°C
Wilgotność 72%
Ciśnienie 1017 hPa
Widzialność 10 km lub więcej
Brak chmur poniżej 1500 m i brak chmur cumulonimbus

METAR: EPPO 162300Z 11006KT CAVOK 17/12 Q1017

czas: 01:16 (23:16 UTC)

Prognoza

Raport powstał 5 godziny i 46 minut temu, godzina 17:30 UTC
Prognoza ważna od 16 godzina 18 UTC do 17 godzina 18 UTC
Wiatr 5 kt od południowy wschód
Widzialność 10 km lub więcej
Brak chmur poniżej 1500 m i brak chmur cumulonimbus

TAF: EPPO 161730Z 1618/1718 14005KT CAVOK

Obserwacja i prognoza pogody dla ponad 4000 lotnisk (raport METAR i TAF).

Dostępne stacje oznaczono żółtymi i czerwonymi punktami na mapie.

Najedź kursorem aby zobaczyć nazwę stacji.

Kliknij aby zobaczyć obserwacje i prognozy pogody.

Aby zmienić mapę: kliknij na zielony przycisk z czarnym krzyżykiem, aby powiększyć; na zielony przycisk z myślnikiem, aby pomniejszyć; na zielone strzałki, aby przejść do map sąsiednich.


METAR-TAF: